createdAt,value
2023-12-30T00:00:18.554Z,101651.00
2023-12-30T00:02:49.489Z,101650.94
2023-12-30T00:05:17.996Z,101653.59
2023-12-30T00:07:46.241Z,101647.31
2023-12-30T00:10:13.692Z,101637.53
2023-12-30T00:12:41.047Z,101641.94
2023-12-30T00:15:09.028Z,101642.81
2023-12-30T00:17:36.253Z,101632.25
2023-12-30T00:20:04.950Z,101628.72
2023-12-30T00:22:32.040Z,101632.25
2023-12-30T00:24:59.205Z,101631.31
2023-12-30T00:27:26.722Z,101641.13
2023-12-30T00:29:53.724Z,101636.72
2023-12-30T00:32:20.563Z,101629.66
2023-12-30T00:34:47.806Z,101618.09
2023-12-30T00:37:20.202Z,101626.09
2023-12-30T00:39:48.536Z,101638.56
2023-12-30T00:42:15.526Z,101629.66
2023-12-30T00:44:42.632Z,101621.66
2023-12-30T00:47:09.640Z,101624.44
2023-12-30T00:49:36.886Z,101627.16
2023-12-30T00:52:04.286Z,101625.44
2023-12-30T00:54:38.006Z,101628.97
2023-12-30T00:57:08.655Z,101629.97
2023-12-30T00:59:35.625Z,101625.50
2023-12-30T01:02:02.644Z,101628.09
2023-12-30T01:04:29.701Z,101622.78
2023-12-30T01:06:56.694Z,101615.63
2023-12-30T01:09:23.605Z,101618.31
2023-12-30T01:11:50.541Z,101617.34
2023-12-30T01:14:17.505Z,101619.97
2023-12-30T01:16:44.500Z,101610.22
2023-12-30T01:19:12.101Z,101616.56
2023-12-30T01:21:39.145Z,101618.31
2023-12-30T01:24:06.534Z,101605.81
2023-12-30T01:26:33.414Z,101613.78
2023-12-30T01:29:00.449Z,101610.16
2023-12-30T01:31:27.408Z,101613.69
2023-12-30T01:33:55.403Z,101607.44
2023-12-30T01:36:22.541Z,101616.31
2023-12-30T01:38:49.647Z,101623.38
2023-12-30T01:41:20.164Z,101621.59
2023-12-30T01:43:47.290Z,101624.25
2023-12-30T01:46:14.969Z,101618.06
2023-12-30T01:48:42.355Z,101627.88
2023-12-30T01:51:23.855Z,101627.97
2023-12-30T01:53:54.556Z,101620.03
2023-12-30T01:56:24.091Z,101621.84
2023-12-30T01:58:53.394Z,101623.72
2023-12-30T02:01:25.333Z,101621.03
2023-12-30T02:03:52.415Z,101621.97
2023-12-30T02:06:19.810Z,101620.09
2023-12-30T02:08:48.727Z,101614.78
2023-12-30T02:11:16.932Z,101615.72
2023-12-30T02:13:45.837Z,101605.03
2023-12-30T02:16:13.410Z,101604.22
2023-12-30T02:18:40.878Z,101603.34
2023-12-30T02:21:08.306Z,101608.69
2023-12-30T02:23:35.402Z,101606.94
2023-12-30T02:26:03.163Z,101611.47
2023-12-30T02:28:30.320Z,101607.84
2023-12-30T02:30:57.760Z,101602.50
2023-12-30T02:33:25.040Z,101599.84
2023-12-30T02:35:53.136Z,101599.94
2023-12-30T02:38:20.113Z,101594.66
2023-12-30T02:40:47.630Z,101593.81
2023-12-30T02:43:14.847Z,101596.47
2023-12-30T02:45:41.884Z,101592.00
2023-12-30T02:48:09.851Z,101589.28
2023-12-30T02:50:37.103Z,101594.53
2023-12-30T02:53:04.422Z,101594.53
2023-12-30T02:55:31.502Z,101585.59
2023-12-30T02:57:59.051Z,101588.22
2023-12-30T03:00:25.962Z,101595.28
2023-12-30T03:05:07.998Z,101597.94
2023-12-30T03:07:37.858Z,101596.25
2023-12-30T03:10:06.289Z,101598.94
2023-12-30T03:12:33.268Z,101588.25
2023-12-30T03:15:00.463Z,101588.25
2023-12-30T03:17:27.581Z,101585.59
2023-12-30T03:19:54.997Z,101586.53
2023-12-30T03:22:22.104Z,101590.06
2023-12-30T03:24:49.160Z,101595.47
2023-12-30T03:27:16.176Z,101599.22
2023-12-30T03:29:46.277Z,101593.88
2023-12-30T03:32:13.268Z,101594.97
2023-12-30T03:34:40.818Z,101605.50
2023-12-30T03:37:07.989Z,101601.41
2023-12-30T03:39:35.064Z,101602.25
2023-12-30T03:42:03.813Z,101603.13
2023-12-30T03:44:32.801Z,101599.53
2023-12-30T03:46:59.768Z,101593.28
2023-12-30T03:49:27.135Z,101590.59
2023-12-30T03:51:54.190Z,101588.81
2023-12-30T03:54:22.436Z,101580.81
2023-12-30T03:56:49.426Z,101585.19
2023-12-30T03:59:16.338Z,101590.47
2023-12-30T04:01:44.938Z,101590.41
2023-12-30T04:04:12.285Z,101588.63
2023-12-30T04:06:39.220Z,101593.03
2023-12-30T04:09:06.278Z,101596.56
2023-12-30T04:11:33.293Z,101601.16
2023-12-30T04:14:00.438Z,101602.88
2023-12-30T04:16:27.421Z,101596.63
2023-12-30T04:18:54.433Z,101600.22
2023-12-30T04:21:21.593Z,101601.06
2023-12-30T04:23:48.627Z,101601.97
2023-12-30T04:26:15.880Z,101599.31
2023-12-30T04:28:42.812Z,101602.78
2023-12-30T04:31:10.079Z,101598.31
2023-12-30T04:33:37.406Z,101604.47
2023-12-30T04:36:04.869Z,101600.00
2023-12-30T04:38:31.841Z,101605.34
2023-12-30T04:40:58.834Z,101600.81
2023-12-30T04:43:25.862Z,101597.28
2023-12-30T04:45:53.323Z,101608.81
2023-12-30T04:48:20.423Z,101607.00
2023-12-30T04:50:47.547Z,101608.75
2023-12-30T04:53:14.512Z,101608.81
2023-12-30T04:55:42.569Z,101613.16
2023-12-30T04:58:09.750Z,101606.94
2023-12-30T05:00:36.743Z,101601.59
2023-12-30T05:03:04.445Z,101606.06
2023-12-30T05:05:31.664Z,101611.41
2023-12-30T05:07:58.775Z,101612.28
2023-12-30T05:10:25.752Z,101606.94
2023-12-30T05:12:52.756Z,101625.59
2023-12-30T05:15:19.936Z,101618.53
2023-12-30T05:17:46.992Z,101628.41
2023-12-30T05:20:17.934Z,101630.28
2023-12-30T05:22:45.605Z,101624.16
2023-12-30T05:25:13.101Z,101623.44
2023-12-30T05:27:40.298Z,101621.66
2023-12-30T05:30:09.036Z,101628.88
2023-12-30T05:32:36.807Z,101635.94
2023-12-30T05:35:04.678Z,101635.94
2023-12-30T05:37:31.851Z,101628.75
2023-12-30T05:39:59.152Z,101633.97
2023-12-30T05:42:26.392Z,101630.41
2023-12-30T05:44:53.400Z,101632.13
2023-12-30T05:47:20.358Z,101638.41
2023-12-30T05:49:47.427Z,101639.31
2023-12-30T05:52:14.384Z,101633.97
2023-12-30T05:54:41.318Z,101633.06
2023-12-30T05:57:08.259Z,101627.75
2023-12-30T05:59:35.501Z,101635.75
2023-12-30T06:02:02.607Z,101627.75
2023-12-30T06:04:30.656Z,101633.06
2023-12-30T06:06:57.772Z,101644.66
2023-12-30T06:09:24.827Z,101639.31
2023-12-30T06:11:51.857Z,101639.31
2023-12-30T06:14:19.016Z,101643.72
2023-12-30T06:16:45.950Z,101646.41
2023-12-30T06:19:16.785Z,101650.88
2023-12-30T06:21:44.881Z,101649.09
2023-12-30T06:24:11.932Z,101649.09
2023-12-30T06:26:41.889Z,101655.44
2023-12-30T06:29:09.568Z,101655.47
2023-12-30T06:31:45.521Z,101658.16
2023-12-30T06:34:12.847Z,101652.88
2023-12-30T06:36:44.331Z,101659.94
2023-12-30T06:39:21.302Z,101655.59
2023-12-30T06:41:48.397Z,101658.38
2023-12-30T06:44:15.865Z,101653.25
2023-12-30T06:46:43.062Z,101664.84
2023-12-30T06:49:10.322Z,101663.94
2023-12-30T06:51:37.466Z,101663.09
2023-12-30T06:54:04.533Z,101660.41
2023-12-30T06:56:31.588Z,101666.69
2023-12-30T06:58:58.563Z,101673.81
2023-12-30T07:01:26.500Z,101667.66
2023-12-30T07:03:54.143Z,101674.94
2023-12-30T07:06:21.181Z,101682.91
2023-12-30T07:08:48.265Z,101675.88
2023-12-30T07:11:15.308Z,101674.06
2023-12-30T07:13:42.505Z,101675.00
2023-12-30T07:16:09.831Z,101667.88
2023-12-30T07:18:37.061Z,101672.34
2023-12-30T07:21:05.356Z,101677.66
2023-12-30T07:23:32.500Z,101675.00
2023-12-30T07:26:00.322Z,101678.53
2023-12-30T07:28:27.275Z,101684.59
2023-12-30T07:30:54.431Z,101687.38
2023-12-30T07:33:21.469Z,101687.63
2023-12-30T07:35:48.627Z,101692.19
2023-12-30T07:38:15.644Z,101697.53
2023-12-30T07:40:42.806Z,101698.34
2023-12-30T07:43:10.067Z,101699.16
2023-12-30T07:45:37.130Z,101705.31
2023-12-30T07:48:04.594Z,101709.69
2023-12-30T07:50:31.682Z,101706.22
2023-12-30T07:52:58.647Z,101705.41
2023-12-30T07:55:25.769Z,101713.41
2023-12-30T07:57:52.891Z,101704.47
2023-12-30T08:00:20.861Z,101712.44
2023-12-30T08:02:48.496Z,101715.03
2023-12-30T08:05:15.902Z,101713.22
2023-12-30T08:07:42.979Z,101708.66
2023-12-30T08:10:12.666Z,101707.75
2023-12-30T08:12:40.313Z,101718.41
2023-12-30T08:15:09.470Z,101718.28
2023-12-30T08:17:37.322Z,101719.09
2023-12-30T08:20:05.922Z,101720.78
2023-12-30T08:22:33.690Z,101720.69
2023-12-30T08:25:01.456Z,101720.78
2023-12-30T08:27:30.366Z,101719.78
2023-12-30T08:29:57.767Z,101722.47
2023-12-30T08:32:24.967Z,101722.38
2023-12-30T08:34:53.150Z,101725.91
2023-12-30T08:37:20.601Z,101723.22
2023-12-30T08:39:48.833Z,101730.28
2023-12-30T08:42:16.567Z,101748.06
2023-12-30T08:44:46.834Z,101746.28
2023-12-30T08:47:14.650Z,101759.69
2023-12-30T08:49:42.159Z,101763.13
2023-12-30T08:52:09.618Z,101773.88
2023-12-30T08:54:40.359Z,101767.56
2023-12-30T08:57:07.512Z,101765.81
2023-12-30T08:59:34.588Z,101772.81
2023-12-30T09:02:02.102Z,101768.34
2023-12-30T09:04:29.605Z,101775.38
2023-12-30T09:06:57.253Z,101784.25
2023-12-30T09:09:24.681Z,101783.34
2023-12-30T09:11:51.938Z,101790.41
2023-12-30T09:14:20.902Z,101786.84
2023-12-30T09:16:47.968Z,101793.06
2023-12-30T09:19:15.565Z,101800.16
2023-12-30T09:21:43.210Z,101791.25
2023-12-30T09:24:10.391Z,101798.38
2023-12-30T09:26:37.457Z,101797.50
2023-12-30T09:29:04.589Z,101792.25
2023-12-30T09:31:31.581Z,101802.28
2023-12-30T09:33:59.322Z,101797.81
2023-12-30T09:36:26.442Z,101804.91
2023-12-30T09:38:53.804Z,101815.50
2023-12-30T09:41:26.023Z,101809.94
2023-12-30T09:43:55.561Z,101810.06
2023-12-30T09:46:24.080Z,101809.13
2023-12-30T09:48:54.430Z,101812.47
2023-12-30T09:51:22.391Z,101809.00
2023-12-30T09:53:49.631Z,101806.25
2023-12-30T09:56:19.950Z,101810.13
2023-12-30T09:58:48.009Z,101804.72
2023-12-30T10:01:15.962Z,101811.75
2023-12-30T10:03:43.740Z,101808.16
2023-12-30T10:06:15.627Z,101815.13
2023-12-30T10:08:43.799Z,101817.00
2023-12-30T10:11:12.095Z,101811.53
2023-12-30T10:13:40.030Z,101809.94
2023-12-30T10:16:07.814Z,101807.06
2023-12-30T10:18:37.079Z,101800.00
2023-12-30T10:21:09.426Z,101811.53
2023-12-30T10:23:38.611Z,101805.34
2023-12-30T10:26:06.417Z,101806.84
2023-12-30T10:28:33.812Z,101807.91
2023-12-30T10:31:06.603Z,101802.50
2023-12-30T10:33:36.198Z,101797.03
2023-12-30T10:36:08.362Z,101801.41
2023-12-30T10:38:37.643Z,101794.25
2023-12-30T10:41:07.740Z,101792.41
2023-12-30T10:43:36.252Z,101784.41
2023-12-30T10:46:04.735Z,101784.28
2023-12-30T10:48:35.073Z,101781.47
2023-12-30T10:51:03.747Z,101776.13
2023-12-30T10:53:41.513Z,101776.91
2023-12-30T10:56:12.739Z,101765.34
2023-12-30T10:58:42.044Z,101756.34
2023-12-30T11:01:11.412Z,101749.22
2023-12-30T11:03:39.553Z,101755.31
2023-12-30T11:06:24.579Z,101754.56
2023-12-30T11:09:02.200Z,101761.69
2023-12-30T11:11:29.229Z,101753.69
2023-12-30T11:13:59.316Z,101746.50
2023-12-30T11:16:26.902Z,101746.50
2023-12-30T11:18:57.351Z,101742.78
2023-12-30T11:21:44.350Z,101736.63
2023-12-30T11:24:13.337Z,101725.28
2023-12-30T11:26:46.177Z,101732.28
2023-12-30T11:29:18.589Z,101726.97
2023-12-30T11:31:50.964Z,101725.09
2023-12-30T11:34:18.493Z,101728.56
2023-12-30T11:36:51.316Z,101732.97
2023-12-30T11:39:29.489Z,101724.91
2023-12-30T11:41:59.901Z,101723.09
2023-12-30T11:44:29.014Z,101717.81
2023-12-30T11:46:56.030Z,101721.22
2023-12-30T11:49:25.428Z,101713.19
2023-12-30T11:52:06.188Z,101719.38
2023-12-30T11:54:34.445Z,101721.19
2023-12-30T11:57:02.074Z,101722.28
2023-12-30T11:59:29.639Z,101710.81
2023-12-30T12:02:13.457Z,101706.47
2023-12-30T12:04:42.186Z,101708.91
2023-12-30T12:07:09.311Z,101701.94
2023-12-30T12:09:39.031Z,101701.00
2023-12-30T12:12:06.867Z,101698.28
2023-12-30T12:14:34.278Z,101701.69
2023-12-30T12:17:06.226Z,101689.06
2023-12-30T12:19:33.318Z,101688.28
2023-12-30T12:22:03.501Z,101684.50
2023-12-30T12:24:33.425Z,101682.63
2023-12-30T12:27:00.454Z,101680.69
2023-12-30T12:29:27.567Z,101682.31
2023-12-30T12:31:54.528Z,101675.97
2023-12-30T12:34:26.930Z,101671.44
2023-12-30T12:36:55.290Z,101680.25
2023-12-30T12:39:22.273Z,101673.03
2023-12-30T12:41:49.744Z,101669.38
2023-12-30T12:44:16.672Z,101668.38
2023-12-30T12:46:43.690Z,101665.63
2023-12-30T12:49:10.804Z,101668.16
2023-12-30T12:51:40.653Z,101655.78
2023-12-30T12:54:07.996Z,101655.69
2023-12-30T12:56:35.287Z,101653.88
2023-12-30T12:59:02.249Z,101657.44
2023-12-30T13:01:29.551Z,101652.09
2023-12-30T13:03:59.315Z,101651.06
2023-12-30T13:06:26.460Z,101642.06
2023-12-30T13:08:57.381Z,101643.75
2023-12-30T13:11:28.492Z,101639.22
2023-12-30T13:13:56.906Z,101640.00
2023-12-30T13:16:27.747Z,101640.25
2023-12-30T13:18:54.880Z,101632.84
2023-12-30T13:21:21.888Z,101641.63
2023-12-30T13:23:51.234Z,101627.19
2023-12-30T13:26:19.850Z,101625.28
2023-12-30T13:28:47.454Z,101624.44
2023-12-30T13:31:18.672Z,101631.44
2023-12-30T13:33:46.088Z,101626.03
2023-12-30T13:36:13.509Z,101628.56
2023-12-30T13:38:46.347Z,101622.34
2023-12-30T13:41:20.663Z,101624.88
2023-12-30T13:43:58.898Z,101627.56
2023-12-30T13:46:38.598Z,101626.66
2023-12-30T13:49:10.569Z,101621.22
2023-12-30T13:51:39.071Z,101623.81
2023-12-30T13:54:06.034Z,101614.94
2023-12-30T13:56:37.141Z,101617.47
2023-12-30T13:59:09.895Z,101620.00
2023-12-30T14:01:38.615Z,101617.28
2023-12-30T14:04:09.115Z,101613.66
2023-12-30T14:06:39.536Z,101616.25
2023-12-30T14:09:25.606Z,101614.47
2023-12-30T14:11:59.171Z,101620.59
2023-12-30T14:14:30.579Z,101625.94
2023-12-30T14:16:59.842Z,101622.41
2023-12-30T14:19:26.887Z,101633.91
2023-12-30T14:21:53.919Z,101631.22
2023-12-30T14:24:21.078Z,101631.09
2023-12-30T14:26:48.208Z,101618.59
2023-12-30T14:29:15.194Z,101623.84
2023-12-30T14:31:42.256Z,101622.03
2023-12-30T14:34:10.951Z,101627.38
2023-12-30T14:36:38.363Z,101633.69
2023-12-30T14:39:09.531Z,101638.16
2023-12-30T14:41:38.225Z,101632.91
2023-12-30T14:44:05.497Z,101625.94
2023-12-30T14:46:32.739Z,101623.41
2023-12-30T14:49:00.386Z,101625.44
2023-12-30T14:51:28.592Z,101625.56
2023-12-30T14:53:55.629Z,101629.16
2023-12-30T14:56:24.155Z,101635.38
2023-12-30T14:58:51.289Z,101630.97
2023-12-30T15:01:18.445Z,101635.44
2023-12-30T15:03:45.504Z,101622.09
2023-12-30T15:06:14.026Z,101623.03
2023-12-30T15:08:41.211Z,101633.72
2023-12-30T15:11:10.052Z,101626.66
2023-12-30T15:13:37.097Z,101630.19
2023-12-30T15:16:04.478Z,101633.72
2023-12-30T15:18:32.150Z,101631.91
2023-12-30T15:21:00.536Z,101633.78
2023-12-30T15:23:28.460Z,101631.09
2023-12-30T15:25:55.511Z,101628.44
2023-12-30T15:28:22.555Z,101624.88
2023-12-30T15:30:50.385Z,101624.88
2023-12-30T15:33:17.797Z,101629.47
2023-12-30T15:35:44.912Z,101636.66
2023-12-30T15:38:11.975Z,101628.78
2023-12-30T15:40:41.996Z,101632.44
2023-12-30T15:43:10.503Z,101629.91
2023-12-30T15:45:38.107Z,101632.59
2023-12-30T15:48:05.659Z,101629.91
2023-12-30T15:50:32.679Z,101626.47
2023-12-30T15:52:59.762Z,101627.50
2023-12-30T15:55:26.780Z,101622.25
2023-12-30T15:57:53.749Z,101630.25
2023-12-30T16:00:20.960Z,101619.72
2023-12-30T16:02:47.962Z,101626.84
2023-12-30T16:05:15.002Z,101634.06
2023-12-30T16:07:42.227Z,101628.72
2023-12-30T16:10:09.719Z,101628.72
2023-12-30T16:12:37.098Z,101629.72
2023-12-30T16:15:04.719Z,101636.94
2023-12-30T16:17:31.785Z,101640.59
2023-12-30T16:20:00.052Z,101633.59
2023-12-30T16:22:27.518Z,101633.59
2023-12-30T16:24:54.799Z,101636.25
2023-12-30T16:27:22.710Z,101639.00
2023-12-30T16:29:50.545Z,101640.88
2023-12-30T16:32:17.679Z,101645.34
2023-12-30T16:34:44.733Z,101647.16
2023-12-30T16:37:12.116Z,101646.34
2023-12-30T16:39:41.188Z,101642.00
2023-12-30T16:42:08.918Z,101638.59
2023-12-30T16:44:35.996Z,101639.53
2023-12-30T16:47:03.478Z,101636.94
2023-12-30T16:49:30.951Z,101645.06
2023-12-30T16:51:58.142Z,101647.75
2023-12-30T16:54:25.122Z,101647.75
2023-12-30T16:56:53.284Z,101640.66
2023-12-30T16:59:20.374Z,101647.78
2023-12-30T17:01:47.422Z,101644.25
2023-12-30T17:04:14.480Z,101640.00
2023-12-30T17:06:41.492Z,101642.78
2023-12-30T17:09:08.396Z,101649.03
2023-12-30T17:11:40.561Z,101651.78
2023-12-30T17:14:10.913Z,101649.16
2023-12-30T17:16:38.200Z,101650.09
2023-12-30T17:19:05.312Z,101650.09
2023-12-30T17:21:33.652Z,101652.78
2023-12-30T17:24:00.653Z,101656.38
2023-12-30T17:26:27.514Z,101659.06
2023-12-30T17:28:54.486Z,101658.19
2023-12-30T17:31:22.223Z,101655.53
2023-12-30T17:33:49.205Z,101659.91
2023-12-30T17:36:17.494Z,101660.03
2023-12-30T17:38:44.498Z,101660.13
2023-12-30T17:41:12.011Z,101661.03
2023-12-30T17:43:39.079Z,101663.69
2023-12-30T17:46:06.169Z,101655.69
2023-12-30T17:48:33.256Z,101661.97
2023-12-30T17:51:00.288Z,101657.63
2023-12-30T17:53:29.140Z,101663.03
2023-12-30T17:55:56.207Z,101662.22
2023-12-30T17:58:23.343Z,101661.47
2023-12-30T18:00:51.435Z,101661.56
2023-12-30T18:03:18.930Z,101659.91
2023-12-30T18:05:46.033Z,101664.47
2023-12-30T18:08:13.029Z,101659.19
2023-12-30T18:10:39.913Z,101662.72
2023-12-30T18:13:07.097Z,101664.50
2023-12-30T18:15:34.057Z,101663.66
2023-12-30T18:18:01.235Z,101669.00
2023-12-30T18:20:29.215Z,101655.66
2023-12-30T18:22:56.148Z,101662.78
2023-12-30T18:25:23.131Z,101663.72
2023-12-30T18:27:50.094Z,101665.56
2023-12-30T18:30:17.360Z,101672.75
2023-12-30T18:32:44.547Z,101670.97
2023-12-30T18:35:12.387Z,101663.91
2023-12-30T18:37:39.501Z,101664.84
2023-12-30T18:40:09.559Z,101666.69
2023-12-30T18:42:38.449Z,101677.44
2023-12-30T18:45:05.970Z,101678.34
2023-12-30T18:47:33.050Z,101680.19
2023-12-30T18:50:00.052Z,101686.38
2023-12-30T18:52:27.340Z,101674.84
2023-12-30T18:54:55.608Z,101673.91
2023-12-30T18:57:23.043Z,101662.38
2023-12-30T18:59:50.064Z,101670.41
2023-12-30T19:02:17.802Z,101673.16
2023-12-30T19:04:45.682Z,101672.22
2023-12-30T19:07:12.876Z,101673.97
2023-12-30T19:09:39.938Z,101665.03
2023-12-30T19:12:07.469Z,101673.03
2023-12-30T19:14:34.342Z,101677.47
2023-12-30T19:17:01.405Z,101676.66
2023-12-30T19:19:28.427Z,101675.84
2023-12-30T19:21:55.363Z,101666.88
2023-12-30T19:24:22.338Z,101665.09
2023-12-30T19:26:49.400Z,101669.56
2023-12-30T19:29:20.996Z,101668.69
2023-12-30T19:31:48.282Z,101665.16
2023-12-30T19:34:15.610Z,101682.97
2023-12-30T19:36:44.359Z,101684.78
2023-12-30T19:39:11.418Z,101678.50
2023-12-30T19:41:39.013Z,101681.16
2023-12-30T19:44:06.762Z,101676.69
2023-12-30T19:46:33.862Z,101680.22
2023-12-30T19:49:04.875Z,101680.34
2023-12-30T19:51:32.577Z,101675.94
2023-12-30T19:53:59.576Z,101673.28
2023-12-30T19:56:26.766Z,101670.69
2023-12-30T19:58:53.705Z,101676.06
2023-12-30T20:01:24.925Z,101673.47
2023-12-30T20:03:52.775Z,101680.59
2023-12-30T20:06:20.002Z,101674.34
2023-12-30T20:08:47.077Z,101678.72
2023-12-30T20:11:14.082Z,101673.41
2023-12-30T20:13:41.332Z,101673.47
2023-12-30T20:16:08.931Z,101671.72
2023-12-30T20:18:36.426Z,101680.66
2023-12-30T20:21:04.623Z,101679.78
2023-12-30T20:23:34.435Z,101685.03
2023-12-30T20:26:02.790Z,101673.53
2023-12-30T20:28:29.871Z,101672.84
2023-12-30T20:30:56.918Z,101670.19
2023-12-30T20:33:23.963Z,101678.97
2023-12-30T20:35:51.053Z,101672.03
2023-12-30T20:38:18.055Z,101680.22
2023-12-30T20:40:47.056Z,101673.94
2023-12-30T20:43:14.551Z,101674.94
2023-12-30T20:49:01.724Z,101666.09
2023-12-30T20:52:06.128Z,101659.88
2023-12-30T20:54:33.609Z,101677.59
2023-12-30T20:57:00.575Z,101668.66
2023-12-30T20:59:27.519Z,101675.75
2023-12-30T21:01:55.559Z,101677.47
2023-12-30T21:04:22.587Z,101672.16
2023-12-30T21:06:49.585Z,101683.75
2023-12-30T21:09:17.794Z,101681.09
2023-12-30T21:11:46.067Z,101677.47
2023-12-30T21:14:13.008Z,101675.78
2023-12-30T21:16:42.204Z,101682.06
2023-12-30T21:19:10.782Z,101685.72
2023-12-30T21:21:40.453Z,101684.72
2023-12-30T21:24:07.903Z,101682.09
2023-12-30T21:26:34.903Z,101683.88
2023-12-30T21:29:01.856Z,101681.13
2023-12-30T21:31:30.215Z,101659.00
2023-12-30T21:33:57.190Z,101656.38
2023-12-30T21:36:25.475Z,101654.69
2023-12-30T21:38:52.916Z,101650.22
2023-12-30T21:41:24.698Z,101657.31
2023-12-30T21:43:51.790Z,101672.50
2023-12-30T21:46:18.850Z,101675.16
2023-12-30T21:48:46.044Z,101680.44
2023-12-30T21:51:14.556Z,101669.66
2023-12-30T21:53:46.190Z,101661.56
2023-12-30T21:56:13.875Z,101663.22
2023-12-30T21:58:40.956Z,101673.88
2023-12-30T22:01:11.261Z,101670.41
2023-12-30T22:03:38.992Z,101656.97
2023-12-30T22:06:06.874Z,101653.28
2023-12-30T22:08:33.932Z,101648.34
2023-12-30T22:11:01.060Z,101670.53
2023-12-30T22:13:27.970Z,101665.25
2023-12-30T22:15:54.916Z,101673.19
2023-12-30T22:18:21.873Z,101688.13
2023-12-30T22:20:48.876Z,101690.69
2023-12-30T22:23:17.034Z,101687.94
2023-12-30T22:25:44.928Z,101696.69
2023-12-30T22:28:11.952Z,101685.03
2023-12-30T22:30:39.731Z,101685.00
2023-12-30T22:33:06.907Z,101673.41
2023-12-30T22:35:34.015Z,101675.09
2023-12-30T22:38:02.262Z,101667.94
2023-12-30T22:40:29.396Z,101672.34
2023-12-30T22:42:56.948Z,101671.44
2023-12-30T22:45:24.295Z,101677.63
2023-12-30T22:47:51.391Z,101682.03
2023-12-30T22:50:22.014Z,101683.84
2023-12-30T22:52:50.106Z,101682.88
2023-12-30T22:55:17.572Z,101674.88
2023-12-30T22:57:45.114Z,101676.66
2023-12-30T23:00:15.061Z,101668.66
2023-12-30T23:02:42.143Z,101658.88
2023-12-30T23:05:09.871Z,101667.81
2023-12-30T23:07:37.091Z,101665.16
2023-12-30T23:10:05.842Z,101651.00
2023-12-30T23:12:32.887Z,101653.69
2023-12-30T23:15:00.067Z,101645.63
2023-12-30T23:17:27.166Z,101643.88
2023-12-30T23:19:54.155Z,101644.69
2023-12-30T23:22:21.154Z,101644.69
2023-12-30T23:24:48.103Z,101650.88
2023-12-30T23:27:15.378Z,101648.22
2023-12-30T23:29:42.412Z,101633.97
2023-12-30T23:32:09.326Z,101633.88
2023-12-30T23:34:43.210Z,101628.69
2023-12-30T23:37:16.488Z,101618.88
2023-12-30T23:39:46.040Z,101620.69
2023-12-30T23:42:13.218Z,101608.22
2023-12-30T23:44:40.107Z,101609.97
2023-12-30T23:47:07.240Z,101609.03
2023-12-30T23:49:34.195Z,101615.22
2023-12-30T23:52:01.606Z,101608.97
2023-12-30T23:54:28.554Z,101597.47
2023-12-30T23:56:57.108Z,101601.81
2023-12-30T23:59:24.209Z,101596.47
